Time;durP1;ratioP1;P1;durP2;ratioP2;P2;SDS_P1;SDS_P2;PMS_P1;PMS_P2;Temp;Humidity;BMP_temperature;BMP_pressure;BME280_temperature;BME280_humidity;BME280_pressure;Samples;Min_cycle;Max_cycle;Signal;HPM_P1;HPM_P2
2023/08/19 00:02:02;;;;;;;17.62;15.30;;;;;;;21.74;72.00;101086.70;1691803;78;21413;-56
2023/08/19 00:07:38;;;;;;;17.82;16.00;;;;;;;21.67;72.11;101088.70;1685099;79;21242;-57
2023/08/19 00:10:44;;;;;;;20.20;15.32;;;;;;;21.64;72.20;101088.63;1686536;79;21786;-56
2023/08/19 00:16:20;;;;;;;21.60;15.60;;;;;;;21.61;72.45;101093.80;1654678;82;21405;-57
2023/08/19 00:21:55;;;;;;;16.85;15.05;;;;;;;21.58;72.59;101090.09;1628872;83;21256;-57
2023/08/19 00:27:31;;;;;;;21.97;17.17;;;;;;;21.55;72.79;101081.63;1685523;79;21348;-55
2023/08/19 00:30:38;;;;;;;21.70;16.62;;;;;;;21.54;72.83;101081.33;1682118;80;21225;-55
2023/08/19 00:36:14;;;;;;;22.13;16.57;;;;;;;21.49;72.95;101078.91;1652789;80;21283;-55
2023/08/19 00:39:14;;;;;;;18.87;16.93;;;;;;;21.48;73.08;101080.00;1680292;78;21229;-56
2023/08/19 00:42:14;;;;;;;18.95;16.52;;;;;;;21.47;73.15;101078.30;1657491;81;21421;-56
2023/08/19 00:50:21;;;;;;;23.15;16.90;;;;;;;21.44;73.40;101069.84;1684528;81;21245;-56
2023/08/19 00:55:56;;;;;;;18.50;16.52;;;;;;;21.39;73.53;101069.67;1694159;80;21245;-55
2023/08/19 01:01:31;;;;;;;19.40;16.15;;;;;;;21.34;73.56;101063.97;1695270;80;21296;-55
2023/08/19 01:07:47;;;;;;;18.85;16.70;;;;;;;21.31;73.76;101061.61;1688798;82;21897;-56
2023/08/19 01:10:58;;;;;;;21.42;16.27;;;;;;;21.28;73.72;101067.64;1691790;80;21462;-55
2023/08/19 01:14:18;;;;;;;18.77;16.50;;;;;;;21.25;73.84;101064.49;1692491;80;21435;-56
2023/08/19 01:17:03;;;;;;;21.27;17.35;;;;;;;21.22;73.93;101060.21;1686084;81;21281;-55
2023/08/19 01:20:09;;;;;;;23.20;16.90;;;;;;;21.18;73.92;101058.98;1692511;80;21465;-55
2023/08/19 01:23:39;;;;;;;22.85;16.73;;;;;;;21.15;73.99;101058.58;1664389;81;21271;-55
2023/08/19 01:26:44;;;;;;;19.48;16.25;;;;;;;21.13;74.15;101060.20;1659713;81;21942;-55
2023/08/19 01:32:20;;;;;;;20.00;17.57;;;;;;;21.10;74.37;101062.05;1662382;81;21263;-55
2023/08/19 01:38:08;;;;;;;21.70;17.02;;;;;;;21.04;74.46;101055.14;1661724;81;21260;-56
2023/08/19 01:41:14;;;;;;;18.82;16.42;;;;;;;21.03;74.50;101052.89;1689939;79;21390;-55
2023/08/19 01:44:20;;;;;;;20.70;16.95;;;;;;;21.00;74.58;101058.05;1691033;79;21276;-56
2023/08/19 01:47:25;;;;;;;20.25;17.55;;;;;;;20.96;74.60;101056.29;1694226;80;21378;-56
2023/08/19 01:50:31;;;;;;;19.73;15.58;;;;;;;20.92;74.66;101045.77;1688256;80;21781;-55
2023/08/19 01:53:37;;;;;;;21.87;16.27;;;;;;;20.91;74.74;101049.65;1638045;82;21316;-55
2023/08/19 02:01:43;;;;;;;23.65;17.48;;;;;;;20.83;74.92;101054.96;1683405;79;21302;-55
2023/08/19 02:04:50;;;;;;;18.77;16.48;;;;;;;20.83;75.08;101049.39;1685605;80;21424;-57
2023/08/19 02:12:54;;;;;;;18.77;16.70;;;;;;;20.77;75.24;101050.30;1674334;81;21317;-57
2023/08/19 02:15:59;;;;;;;22.70;17.17;;;;;;;20.76;75.26;101043.87;1681295;81;21241;-57
2023/08/19 02:21:35;;;;;;;19.95;16.77;;;;;;;20.70;75.30;101058.70;1687040;80;21813;-57
2023/08/19 02:27:10;;;;;;;19.50;16.50;;;;;;;20.63;75.43;101053.71;1690177;80;21253;-56
2023/08/19 02:32:47;;;;;;;21.82;17.52;;;;;;;20.60;75.62;101063.91;1693597;80;21406;-56
2023/08/19 02:38:24;;;;;;;22.87;17.17;;;;;;;20.58;75.80;101062.44;1693832;80;21255;-56
2023/08/19 02:41:30;;;;;;;17.82;15.93;;;;;;;20.58;75.84;101059.66;1689804;79;21281;-56
2023/08/19 02:47:06;;;;;;;20.10;16.27;;;;;;;20.55;75.93;101060.10;1678520;79;21240;-56
2023/08/19 02:52:42;;;;;;;23.30;16.70;;;;;;;20.53;76.05;101060.86;1680274;80;21427;-56
2023/08/19 02:58:18;;;;;;;20.65;15.78;;;;;;;20.52;76.19;101064.70;1691226;80;21813;-56
2023/08/19 03:03:54;;;;;;;19.95;15.80;;;;;;;20.53;76.34;101068.64;1690017;80;21364;-56
2023/08/19 03:09:29;;;;;;;21.15;16.95;;;;;;;20.55;76.42;101058.71;1693892;80;21411;-57
2023/08/19 03:12:36;;;;;;;19.67;16.93;;;;;;;20.55;76.44;101065.11;1652614;80;21275;-57
2023/08/19 03:18:10;;;;;;;19.57;16.20;;;;;;;20.56;76.55;101075.70;1691068;80;21236;-54
2023/08/19 03:26:14;;;;;;;19.57;16.07;;;;;;;20.63;76.76;101073.72;1658840;81;21331;-55
2023/08/19 03:29:20;;;;;;;19.32;15.60;;;;;;;20.64;76.80;101068.48;1658078;80;21627;-55
2023/08/19 03:37:25;;;;;;;25.43;17.07;;;;;;;20.72;76.92;101069.61;1691205;80;21895;-55
2023/08/19 03:40:32;;;;;;;32.50;16.67;;;;;;;20.73;76.94;101070.77;1682583;80;21978;-55
2023/08/19 03:46:07;;;;;;;19.73;16.80;;;;;;;20.79;77.06;101075.95;1689891;78;21249;-55
2023/08/19 03:51:43;;;;;;;21.02;16.30;;;;;;;20.85;77.19;101074.22;1687575;79;21620;-56
2023/08/19 03:57:19;;;;;;;21.15;16.50;;;;;;;20.94;77.32;101077.03;1678927;78;21249;-56
2023/08/19 04:02:53;;;;;;;24.45;15.95;;;;;;;21.00;77.39;101085.89;1684783;80;21347;-56
2023/08/19 04:08:29;;;;;;;21.90;17.67;;;;;;;21.09;77.51;101086.78;1693781;78;21367;-54
2023/08/19 04:14:08;;;;;;;22.22;18.00;;;;;;;21.20;77.60;101083.25;1691432;80;21376;-54
2023/08/19 04:17:16;;;;;;;22.30;16.50;;;;;;;21.24;77.64;101087.30;1682053;79;21233;-56
2023/08/19 04:20:24;;;;;;;18.23;16.00;;;;;;;21.29;77.64;101081.05;1687840;80;21268;-56
2023/08/19 04:23:30;;;;;;;19.27;15.50;;;;;;;21.32;77.69;101081.97;1672397;81;21285;-56
2023/08/19 04:26:36;;;;;;;20.72;15.72;;;;;;;21.39;77.79;101097.54;1681442;80;21675;-55
2023/08/19 04:29:42;;;;;;;23.38;16.62;;;;;;;21.46;77.88;101085.80;1693886;79;21471;-56
2023/08/19 04:32:50;;;;;;;21.85;16.77;;;;;;;21.53;77.97;101084.34;1694320;78;21288;-56
2023/08/19 04:38:27;;;;;;;23.20;16.57;;;;;;;21.68;78.08;101088.46;1691878;79;21244;-56
2023/08/19 04:44:05;;;;;;;20.88;15.65;;;;;;;21.82;78.18;101090.58;1696444;79;21375;-56
2023/08/19 04:49:40;;;;;;;20.17;17.98;;;;;;;21.98;78.25;101089.42;1698831;80;21421;-54
2023/08/19 04:57:45;;;;;;;25.30;16.87;;;;;;;22.20;78.35;101086.46;1708919;80;21248;-56
2023/08/19 05:00:51;;;;;;;19.77;15.40;;;;;;;22.28;78.39;101088.64;1710667;80;21402;-56
2023/08/19 05:06:26;;;;;;;21.65;14.83;;;;;;;22.48;78.46;101083.09;1701775;80;21260;-56
2023/08/19 05:12:00;;;;;;;21.95;14.93;;;;;;;22.67;78.48;101088.09;1709402;80;22007;-56
2023/08/19 05:17:35;;;;;;;19.37;13.78;;;;;;;22.85;78.51;101083.86;1704630;80;21425;-57
2023/08/19 05:20:41;;;;;;;19.35;14.60;;;;;;;22.93;78.50;101089.10;1710523;79;21331;-56
2023/08/19 05:26:17;;;;;;;30.90;17.27;;;;;;;23.13;78.52;101085.42;1701118;80;21864;-57
2023/08/19 05:31:51;;;;;;;19.12;14.03;;;;;;;23.31;78.54;101081.14;1702925;79;21275;-57
2023/08/19 05:34:57;;;;;;;21.07;12.93;;;;;;;23.37;78.56;101082.42;1706438;79;21307;-56
2023/08/19 05:40:30;;;;;;;16.23;12.37;;;;;;;23.57;78.57;101080.14;1707357;80;21351;-57
2023/08/19 05:43:36;;;;;;;20.02;13.15;;;;;;;23.66;78.51;101079.77;1684996;81;21420;-57
2023/08/19 05:49:13;;;;;;;16.73;12.33;;;;;;;23.82;78.39;101086.84;1700392;80;21383;-58
2023/08/19 05:54:48;;;;;;;15.50;13.60;;;;;;;23.99;78.31;101087.81;1702304;80;21212;-59
2023/08/19 05:57:54;;;;;;;16.35;12.45;;;;;;;24.07;78.25;101095.00;1711663;80;21296;-59
2023/08/19 06:03:29;;;;;;;17.60;13.35;;;;;;;24.22;78.14;101086.38;1699008;80;21414;-58
2023/08/19 06:09:05;;;;;;;18.40;12.30;;;;;;;24.38;78.14;101082.80;1704445;79;21443;-58
2023/08/19 06:12:13;;;;;;;15.30;12.70;;;;;;;24.45;78.12;101083.48;1706665;80;21836;-57
2023/08/19 06:20:19;;;;;;;19.05;12.45;;;;;;;24.70;77.97;101082.63;1704632;80;21602;-56
2023/08/19 06:26:00;;;;;;;17.12;11.57;;;;;;;24.85;77.81;101075.03;1709805;80;21387;-58
2023/08/19 06:29:05;;;;;;;19.65;11.65;;;;;;;24.91;77.72;101080.48;1693662;81;21259;-58
2023/08/19 06:34:24;;;;;;;16.52;12.00;;;;;;;25.05;77.46;101083.25;1705400;79;21291;-59
2023/08/19 06:40:03;;;;;;;16.35;11.90;;;;;;;25.24;77.36;101087.22;1704068;79;21312;-58
2023/08/19 06:43:12;;;;;;;14.30;12.03;;;;;;;25.31;77.26;101094.92;1694909;81;21455;-57
2023/08/19 06:48:47;;;;;;;14.93;11.63;;;;;;;25.48;77.18;101085.98;1683608;81;21278;-59
2023/08/19 06:57:10;;;;;;;16.60;11.57;;;;;;;25.76;77.01;101096.52;1659334;81;21269;-58
2023/08/19 07:00:17;;;;;;;14.58;11.73;;;;;;;25.80;76.87;101092.07;1698509;79;21271;-58
2023/08/19 07:03:23;;;;;;;15.65;12.07;;;;;;;25.86;76.64;101087.40;1692065;81;21236;-58
2023/08/19 07:06:29;;;;;;;18.20;12.50;;;;;;;25.95;76.61;101090.91;1702227;78;21456;-57
2023/08/19 07:09:35;;;;;;;19.00;13.18;;;;;;;26.04;76.55;101093.58;1703544;81;21828;-59
2023/08/19 07:12:42;;;;;;;22.93;12.13;;;;;;;26.11;76.50;101092.84;1698835;80;21216;-59
2023/08/19 07:20:48;;;;;;;14.50;11.12;;;;;;;26.40;76.33;101099.94;1654608;82;21879;-58
2023/08/19 07:26:23;;;;;;;15.50;11.12;;;;;;;26.54;75.99;101102.35;1691797;80;21351;-59
2023/08/19 07:29:29;;;;;;;15.08;10.68;;;;;;;26.62;75.86;101101.88;1641161;81;21239;-59
2023/08/19 07:32:38;;;;;;;12.07;10.43;;;;;;;26.68;75.69;101105.93;1647413;82;21807;-59
2023/08/19 07:35:46;;;;;;;16.65;11.05;;;;;;;26.77;75.66;101100.12;1647329;81;21268;-58
2023/08/19 07:38:51;;;;;;;16.62;10.68;;;;;;;26.86;75.51;101099.92;1711269;80;21409;-58
2023/08/19 07:44:27;;;;;;;12.20;10.03;;;;;;;27.00;75.27;101105.44;1706812;80;21264;-58
2023/08/19 07:47:33;;;;;;;13.40;10.30;;;;;;;27.07;75.19;101102.38;1703940;79;21236;-59
2023/08/19 07:53:08;;;;;;;14.83;9.98;;;;;;;27.24;74.91;101099.73;1709534;79;21739;-60
2023/08/19 07:58:44;;;;;;;16.90;9.65;;;;;;;27.41;74.67;101092.05;1707366;79;21275;-58
2023/08/19 08:01:51;;;;;;;12.20;8.30;;;;;;;27.51;74.58;101096.91;1706686;80;21419;-59
2023/08/19 08:04:58;;;;;;;13.80;10.08;;;;;;;27.62;74.43;101097.28;1710583;80;21832;-57
2023/08/19 08:10:33;;;;;;;14.45;9.70;;;;;;;27.74;73.98;101097.36;1703123;80;21223;-59
2023/08/19 08:13:40;;;;;;;16.00;9.63;;;;;;;27.79;73.80;101094.58;1702678;80;21226;-60
2023/08/19 08:19:14;;;;;;;11.33;8.73;;;;;;;27.92;73.40;101093.83;1698835;80;21315;-58
2023/08/19 08:22:19;;;;;;;14.28;8.48;;;;;;;27.99;73.21;101097.27;1648300;80;21275;-57
2023/08/19 08:27:54;;;;;;;18.70;9.45;;;;;;;28.22;72.20;101094.00;1669566;80;21271;-59
2023/08/19 08:33:31;;;;;;;12.47;8.20;;;;;;;28.31;72.40;101088.11;1693484;80;21255;-59
2023/08/19 08:39:06;;;;;;;11.40;7.85;;;;;;;28.48;72.08;101085.39;1674394;82;21766;-58
2023/08/19 08:42:12;;;;;;;11.33;7.30;;;;;;;28.58;71.91;101091.63;1659418;81;21247;-59
2023/08/19 08:50:18;;;;;;;9.73;6.75;;;;;;;28.82;71.52;101088.59;1709757;79;21759;-59
2023/08/19 08:55:53;;;;;;;11.20;7.00;;;;;;;28.96;70.12;101079.88;1647707;82;21263;-59
2023/08/19 09:01:30;;;;;;;18.67;7.37;;;;;;;29.12;69.86;101081.06;1691556;80;21236;-58
2023/08/19 09:07:16;;;;;;;11.90;6.70;;;;;;;29.19;69.43;101081.61;1709982;80;21816;-59
2023/08/19 09:10:25;;;;;;;13.85;6.90;;;;;;;29.24;69.27;101083.03;1702751;80;21473;-58
2023/08/19 09:13:31;;;;;;;9.98;6.33;;;;;;;29.39;69.01;101084.16;1706479;80;21263;-59
2023/08/19 09:16:37;;;;;;;10.05;6.17;;;;;;;29.46;68.99;101071.48;1704102;80;21284;-57
2023/08/19 09:19:44;;;;;;;9.83;6.45;;;;;;;29.55;68.53;101078.78;1698482;81;21290;-57
2023/08/19 09:25:24;;;;;;;9.53;6.47;;;;;;;29.66;67.77;101081.34;1653425;83;21793;-59
2023/08/19 09:30:58;;;;;;;8.58;5.30;;;;;;;29.78;67.16;101078.23;1692329;80;21271;-57
2023/08/19 09:36:35;;;;;;;8.80;5.80;;;;;;;29.90;66.51;101082.44;1673147;80;21344;-57
2023/08/19 09:42:11;;;;;;;10.68;5.60;;;;;;;29.98;65.80;101077.61;1678659;80;21271;-57
2023/08/19 09:47:59;;;;;;;10.70;6.22;;;;;;;30.11;65.29;101072.74;1740736;80;21485;-58
2023/08/19 09:50:52;;;;;;;9.53;5.75;;;;;;;30.17;64.96;101071.62;1744030;79;21291;-58
2023/08/19 09:56:33;;;;;;;9.75;5.00;;;;;;;30.29;64.22;101071.30;1720939;79;21645;-59
2023/08/19 09:59:39;;;;;;;8.78;5.37;;;;;;;30.34;63.93;101068.45;1695299;81;21794;-59
2023/08/19 10:02:47;;;;;;;6.78;4.70;;;;;;;30.43;63.61;101071.80;1677847;80;21437;-58
2023/08/19 10:05:56;;;;;;;8.58;4.15;;;;;;;30.52;63.29;101063.56;1705471;81;21282;-57
2023/08/19 10:09:09;;;;;;;8.45;4.55;;;;;;;30.58;62.80;101065.22;1702489;81;22048;-58
2023/08/19 10:12:15;;;;;;;;;;;;;;;30.65;62.45;101058.69;1690751;81;21233;-59
2023/08/19 10:15:21;;;;;;;10.25;4.58;;;;;;;30.73;62.03;101062.32;1653182;82;20232;-58
2023/08/19 10:18:32;;;;;;;13.50;4.60;;;;;;;30.81;61.75;101061.70;1693588;80;21844;-57
2023/08/19 10:21:38;;;;;;;12.55;5.22;;;;;;;30.91;61.46;101057.96;1686701;81;21259;-59
2023/08/19 10:24:44;;;;;;;10.35;5.40;;;;;;;30.99;61.02;101054.51;1641169;81;21250;-59
2023/08/19 10:30:35;;;;;;;8.50;4.37;;;;;;;31.13;60.10;101054.97;1696339;81;21857;-57
2023/08/19 10:33:48;;;;;;;9.78;4.85;;;;;;;31.19;59.77;101060.03;1702822;80;21293;-58
2023/08/19 10:37:16;;;;;;;7.33;4.53;;;;;;;31.29;59.35;101064.17;1706851;81;21304;-57
2023/08/19 10:43:07;;;;;;;8.73;4.53;;;;;;;31.42;58.40;101054.47;1685161;81;21317;-58
2023/08/19 10:48:42;;;;;;;7.37;4.53;;;;;;;31.55;57.78;101050.95;1658171;80;21299;-58
2023/08/19 10:57:00;;;;;;;7.47;4.30;;;;;;;31.77;56.75;101050.42;1698283;82;21794;-57
2023/08/19 11:00:10;;;;;;;7.78;4.33;;;;;;;31.85;56.51;101044.14;1642131;83;21282;-58
2023/08/19 11:02:37;;;;;;;9.95;5.03;;;;;;;31.97;56.06;101041.72;1653766;82;21867;-58
2023/08/19 11:05:29;;;;;;;6.92;4.53;;;;;;;32.05;55.72;101038.22;1688570;81;21219;-59
2023/08/19 11:11:04;;;;;;;8.38;4.40;;;;;;;32.24;55.06;101039.71;1674232;82;21231;-59
2023/08/19 11:14:12;;;;;;;9.13;4.47;;;;;;;32.30;54.75;101031.41;1675186;80;21740;-57
2023/08/19 11:22:24;;;;;;;9.60;4.60;;;;;;;32.62;53.92;101025.29;1687589;82;21319;-57
2023/08/19 11:30:29;;;;;;;8.30;5.60;;;;;;;32.74;52.74;101020.02;1711686;79;21244;-55
2023/08/19 11:33:38;;;;;;;8.83;4.90;;;;;;;32.76;52.48;101026.20;1689247;82;21243;-55
2023/08/19 11:36:44;;;;;;;7.15;4.72;;;;;;;32.82;52.22;101009.96;1702399;80;21271;-54
2023/08/19 11:39:52;;;;;;;7.50;4.90;;;;;;;32.91;51.99;101005.30;1702532;80;21794;-56
2023/08/19 11:42:59;;;;;;;9.18;5.12;;;;;;;32.97;51.69;101012.57;1686828;80;21331;-53
2023/08/19 11:46:05;;;;;;;7.30;4.90;;;;;;;32.98;51.24;101009.42;1710146;79;21929;-53
2023/08/19 11:49:15;;;;;;;9.23;4.22;;;;;;;33.00;50.98;101002.02;1646850;81;21425;-52
2023/08/19 11:55:10;;;;;;;8.20;4.87;;;;;;;33.10;50.42;101003.27;1695896;80;21240;-54
2023/08/19 11:58:15;;;;;;;9.18;4.60;;;;;;;33.06;50.00;101007.30;1702183;81;21248;-53
2023/08/19 12:01:20;;;;;;;8.13;5.20;;;;;;;33.02;49.74;101006.81;1702349;80;21741;-53
2023/08/19 12:04:26;;;;;;;6.97;4.90;;;;;;;33.01;49.46;101005.99;1705487;80;21215;-53
2023/08/19 12:12:32;;;;;;;6.25;4.80;;;;;;;32.84;48.68;100990.64;1703451;81;22200;-54
2023/08/19 12:18:07;;;;;;;8.30;5.17;;;;;;;32.77;48.26;100994.44;1699217;80;21243;-54
2023/08/19 12:23:43;;;;;;;11.28;4.37;;;;;;;32.71;48.00;100991.41;1708414;77;21337;-54
2023/08/19 12:26:41;;;;;;;8.73;5.12;;;;;;;32.71;47.86;101000.78;1707780;80;21821;-54
2023/08/19 12:32:16;;;;;;;11.50;7.87;;;;;;;32.72;47.52;100990.25;1686261;81;21958;-52
2023/08/19 12:37:56;;;;;;;7.55;4.37;;;;;;;32.73;47.28;100989.95;1683632;81;21373;-55
2023/08/19 12:43:33;;;;;;;11.12;4.33;;;;;;;32.70;47.05;100986.88;1689627;81;21436;-56
2023/08/19 12:46:51;;;;;;;9.10;3.90;;;;;;;32.67;46.82;100988.34;1678819;81;21409;-55
2023/08/19 12:49:58;;;;;;;7.83;3.77;;;;;;;32.60;46.57;100989.30;1661840;82;21313;-54
2023/08/19 12:53:06;;;;;;;10.88;4.20;;;;;;;32.54;46.33;100992.54;1650627;81;21333;-56
2023/08/19 12:56:12;;;;;;;10.78;4.33;;;;;;;32.53;46.23;100988.00;1699846;80;21502;-56
2023/08/19 12:59:18;;;;;;;5.80;4.25;;;;;;;32.51;46.03;100975.55;1730595;80;21389;-56
2023/08/19 13:02:23;;;;;;;6.62;4.30;;;;;;;32.52;45.91;100977.25;1694652;79;21433;-55
2023/08/19 13:08:00;;;;;;;8.93;4.28;;;;;;;32.53;45.68;100969.56;1724185;79;21388;-55
2023/08/19 13:16:06;;;;;;;6.35;4.10;;;;;;;32.54;45.50;100973.52;1675692;82;21235;-55
2023/08/19 13:19:12;;;;;;;7.00;4.60;;;;;;;32.54;45.36;100969.86;1673960;81;21251;-56
2023/08/19 13:27:12;;;;;;;9.83;4.35;;;;;;;32.46;44.96;100969.95;1702700;83;21455;-56
2023/08/19 13:30:18;;;;;;;7.30;4.50;;;;;;;32.45;44.90;100961.75;1704077;81;21551;-56
2023/08/19 13:33:26;;;;;;;6.42;4.17;;;;;;;32.44;44.76;100962.91;1706204;80;21469;-56
2023/08/19 13:38:59;;;;;;;7.37;4.80;;;;;;;32.41;44.63;100964.38;1710745;80;21216;-55
2023/08/19 13:44:38;;;;;;;7.65;4.40;;;;;;;32.40;44.48;100964.09;1702240;79;21249;-56
2023/08/19 13:50:14;;;;;;;10.05;4.62;;;;;;;32.41;44.34;100967.22;1707071;79;21243;-57
2023/08/19 13:55:50;;;;;;;8.78;4.20;;;;;;;32.45;44.19;100966.00;1692595;81;21403;-56
2023/08/19 14:01:26;;;;;;;11.43;4.42;;;;;;;32.44;44.04;100964.33;1662130;82;21244;-55
2023/08/19 14:07:03;;;;;;;9.18;4.40;;;;;;;32.49;43.80;100963.66;1690542;81;21767;-57
2023/08/19 14:12:39;;;;;;;9.98;4.92;;;;;;;32.49;43.59;100961.42;1704563;78;21808;-55
2023/08/19 14:18:15;;;;;;;12.33;5.47;;;;;;;32.50;43.43;100961.11;1665805;80;21284;-56
2023/08/19 14:23:51;;;;;;;13.10;5.05;;;;;;;32.50;43.23;100956.00;1709178;79;21217;-57
2023/08/19 14:29:25;;;;;;;10.45;5.55;;;;;;;32.48;42.99;100954.05;1700591;80;21239;-55
2023/08/19 14:35:00;;;;;;;10.00;4.37;;;;;;;32.42;42.88;100951.87;1713553;79;21597;-56
2023/08/19 14:38:07;;;;;;;6.85;4.37;;;;;;;32.41;42.86;100945.09;1705969;80;21740;-56
2023/08/19 14:43:39;;;;;;;6.60;4.10;;;;;;;32.38;42.79;100949.97;1709176;80;21285;-57
2023/08/19 14:46:46;;;;;;;9.45;4.03;;;;;;;32.35;42.76;100945.70;1688852;78;21268;-56
2023/08/19 14:52:21;;;;;;;10.63;4.87;;;;;;;32.35;42.71;100947.12;1698478;81;21291;-56
2023/08/19 14:57:58;;;;;;;10.68;4.78;;;;;;;32.32;42.72;100937.81;1706269;80;21229;-57
2023/08/19 15:06:04;;;;;;;8.98;5.17;;;;;;;32.30;42.90;100942.12;1698850;79;21577;-57
2023/08/19 15:11:41;;;;;;;8.23;4.62;;;;;;;32.28;43.03;100938.17;1701801;78;21264;-55
2023/08/19 15:17:16;;;;;;;10.10;4.50;;;;;;;32.22;43.24;100939.40;1698884;79;21255;-56
2023/08/19 15:20:22;;;;;;;11.57;4.78;;;;;;;32.20;43.33;100938.86;1699225;80;21732;-56
2023/08/19 15:25:59;;;;;;;13.85;5.50;;;;;;;32.05;43.56;100933.98;1690574;81;21427;-56
2023/08/19 15:31:36;;;;;;;8.63;4.90;;;;;;;31.94;43.90;100934.11;1690343;81;21237;-56
2023/08/19 15:37:14;;;;;;;7.87;5.08;;;;;;;31.92;44.10;100925.66;1706459;80;21346;-57
2023/08/19 15:45:19;;;;;;;14.83;6.05;;;;;;;31.74;44.44;100939.16;1709796;82;21291;-56
2023/08/19 15:50:54;;;;;;;7.78;5.35;;;;;;;31.67;44.74;100938.67;1720168;80;21292;-56
2023/08/19 15:54:00;;;;;;;12.58;6.42;;;;;;;31.63;44.81;100934.21;1681982;82;21268;-57
2023/08/19 15:59:35;;;;;;;11.48;7.08;;;;;;;31.42;45.14;100937.55;1711938;80;21219;-55
2023/08/19 16:07:44;;;;;;;8.98;5.92;;;;;;;31.22;45.63;100936.34;1708874;80;21779;-57
2023/08/19 16:13:18;;;;;;;12.28;6.00;;;;;;;31.05;46.01;100944.44;1688812;80;21245;-57
2023/08/19 16:18:53;;;;;;;13.03;5.95;;;;;;;30.87;46.34;100953.09;1699408;80;21314;-56
2023/08/19 16:21:59;;;;;;;15.95;6.22;;;;;;;30.77;46.49;100951.75;1693716;79;21749;-55
2023/08/19 16:27:35;;;;;;;13.10;7.62;;;;;;;30.69;46.95;100949.52;1677057;80;21762;-56
2023/08/19 16:33:10;;;;;;;8.43;5.85;;;;;;;30.46;47.32;100949.67;1674186;82;21315;-57
2023/08/19 16:41:16;;;;;;;11.60;6.78;;;;;;;30.10;47.88;100955.80;1667121;79;21263;-57
2023/08/19 16:46:54;;;;;;;10.10;6.40;;;;;;;29.82;48.44;100947.48;1670754;80;21248;-56
2023/08/19 16:50:01;;;;;;;10.10;6.65;;;;;;;29.72;48.47;100952.31;1700576;78;21291;-58
2023/08/19 16:58:07;;;;;;;10.58;6.25;;;;;;;29.32;49.23;100958.89;1700528;78;21453;-56
2023/08/19 17:06:15;;;;;;;11.68;6.95;;;;;;;28.96;49.93;100965.13;1682224;80;21288;-58
2023/08/19 17:11:50;;;;;;;13.40;7.22;;;;;;;28.76;50.41;100958.64;1659854;81;21213;-57
2023/08/19 17:14:56;;;;;;;13.10;7.12;;;;;;;28.66;50.63;100961.44;1667139;82;21280;-57
2023/08/19 17:20:32;;;;;;;13.62;6.50;;;;;;;28.42;51.15;100964.47;1667147;82;21809;-57
2023/08/19 17:28:39;;;;;;;11.53;6.78;;;;;;;28.12;51.86;100958.77;1701768;80;21292;-57
2023/08/19 17:34:14;;;;;;;11.53;6.87;;;;;;;27.96;52.29;100965.47;1718235;80;21213;-57
2023/08/19 17:37:20;;;;;;;12.85;6.92;;;;;;;27.88;52.51;100966.86;1736930;79;21219;-57
2023/08/19 17:42:53;;;;;;;9.98;6.53;;;;;;;27.70;53.03;100970.97;1724812;81;21237;-57
2023/08/19 17:48:30;;;;;;;10.18;7.10;;;;;;;27.56;53.46;100976.80;1701305;81;21228;-56
2023/08/19 17:54:10;;;;;;;15.50;7.35;;;;;;;27.41;53.88;100973.92;1664747;82;21217;-58
2023/08/19 17:57:16;;;;;;;9.85;6.85;;;;;;;27.37;54.02;100977.55;1674418;78;21331;-57
2023/08/19 18:00:21;;;;;;;10.88;6.97;;;;;;;27.28;54.22;100967.36;1649058;81;21666;-57
2023/08/19 18:03:26;;;;;;;11.83;6.78;;;;;;;27.20;54.42;100966.43;1646412;81;21693;-57
2023/08/19 18:06:33;;;;;;;13.08;6.55;;;;;;;27.13;54.65;100970.60;1689086;81;21647;-57
2023/08/19 18:09:39;;;;;;;12.00;7.03;;;;;;;27.06;54.85;100969.42;1700691;80;21227;-58
2023/08/19 18:12:45;;;;;;;10.35;6.60;;;;;;;26.98;55.05;100972.73;1690349;81;21327;-55
2023/08/19 18:15:54;;;;;;;10.72;7.00;;;;;;;26.91;55.23;100971.27;1712718;82;21248;-56
2023/08/19 18:21:29;;;;;;;15.78;7.08;;;;;;;26.75;55.66;100965.23;1698353;78;21320;-56
2023/08/19 18:27:07;;;;;;;13.13;7.90;;;;;;;26.60;56.01;100965.91;1702206;80;21807;-56
2023/08/19 18:32:46;;;;;;;11.10;7.05;;;;;;;26.44;56.34;100966.87;1696914;80;21240;-58
2023/08/19 18:40:50;;;;;;;12.88;8.08;;;;;;;26.21;56.83;100977.86;1707297;80;21279;-56
2023/08/19 18:43:55;;;;;;;18.35;8.60;;;;;;;26.15;57.00;100972.44;1691683;80;21255;-56
2023/08/19 18:49:32;;;;;;;9.43;7.92;;;;;;;25.99;57.44;100965.78;1729464;80;21248;-56
2023/08/19 18:55:08;;;;;;;11.30;8.35;;;;;;;25.83;57.74;100968.68;1728012;79;21180;-57
2023/08/19 19:00:45;;;;;;;11.18;7.58;;;;;;;25.69;58.11;100975.80;1725978;79;21639;-56
2023/08/19 19:06:21;;;;;;;9.25;7.20;;;;;;;25.56;58.50;100978.98;1725980;79;21361;-55
2023/08/19 19:11:57;;;;;;;16.05;8.93;;;;;;;25.45;58.91;100974.34;1680482;81;21255;-56
2023/08/19 19:17:34;;;;;;;10.78;8.78;;;;;;;25.36;59.34;100974.46;1668726;81;21324;-57
2023/08/19 19:23:09;;;;;;;14.65;8.88;;;;;;;25.28;59.65;100981.88;1641392;82;21340;-57
2023/08/19 19:28:44;;;;;;;12.13;8.55;;;;;;;25.18;60.00;100976.14;1666640;82;21811;-57
2023/08/19 19:34:20;;;;;;;10.48;9.10;;;;;;;25.10;60.33;100980.77;1676019;81;21253;-57
2023/08/19 19:39:57;;;;;;;12.18;8.80;;;;;;;25.00;60.64;100982.31;1670025;82;21286;-57
2023/08/19 19:45:33;;;;;;;14.20;9.23;;;;;;;24.92;60.93;100981.89;1676889;81;21256;-56
2023/08/19 19:53:40;;;;;;;15.75;9.00;;;;;;;24.77;61.31;100981.07;1673830;82;21450;-57
2023/08/19 19:56:48;;;;;;;10.18;8.33;;;;;;;24.73;61.41;100977.09;1668663;82;21765;-57
2023/08/19 20:04:55;;;;;;;16.40;8.73;;;;;;;24.56;61.90;100973.38;1685732;79;21295;-57
2023/08/19 20:10:31;;;;;;;11.80;8.48;;;;;;;24.50;62.32;100978.59;1680975;81;21402;-57
2023/08/19 20:16:07;;;;;;;11.88;8.83;;;;;;;24.44;62.55;100972.61;1683708;80;22140;-57
2023/08/19 20:19:15;;;;;;;11.48;7.97;;;;;;;24.40;62.66;100975.63;1675598;80;21413;-57
2023/08/19 20:24:51;;;;;;;12.37;8.45;;;;;;;24.32;62.97;100977.44;1686534;79;21236;-57
2023/08/19 20:32:56;;;;;;;15.70;9.08;;;;;;;24.24;63.38;100969.98;1685011;80;21936;-57
2023/08/19 20:38:31;;;;;;;11.18;8.30;;;;;;;24.17;63.58;100975.73;1681453;80;21290;-56
2023/08/19 20:46:39;;;;;;;12.55;9.03;;;;;;;24.10;63.92;100976.42;1673481;81;21394;-57
2023/08/19 20:52:15;;;;;;;14.80;8.85;;;;;;;24.02;64.11;100980.19;1646742;82;21263;-57
2023/08/19 20:57:51;;;;;;;11.48;8.58;;;;;;;23.97;64.38;100981.47;1652264;80;21240;-57
2023/08/19 21:03:25;;;;;;;15.35;8.60;;;;;;;23.91;64.61;100981.91;1662929;82;21819;-58
2023/08/19 21:09:01;;;;;;;17.87;9.43;;;;;;;23.83;64.74;100980.03;1676697;81;21893;-57
2023/08/19 21:12:06;;;;;;;16.05;9.70;;;;;;;23.80;64.87;100986.95;1659942;81;21303;-57
2023/08/19 21:17:40;;;;;;;18.20;8.78;;;;;;;23.72;65.06;100987.37;1681992;81;21381;-57
2023/08/19 21:20:50;;;;;;;12.65;8.93;;;;;;;23.68;65.14;100983.89;1661546;81;21374;-57
2023/08/19 21:28:57;;;;;;;14.47;9.60;;;;;;;23.53;65.43;100985.83;1674736;79;21368;-57
2023/08/19 21:32:02;;;;;;;17.20;9.43;;;;;;;23.49;65.54;100981.81;1665451;81;21406;-57
2023/08/19 21:37:38;;;;;;;17.42;9.33;;;;;;;23.43;65.84;100978.61;1676627;82;21418;-57
2023/08/19 21:43:14;;;;;;;10.68;8.33;;;;;;;23.37;66.05;100974.00;1678185;80;21307;-56
2023/08/19 21:48:51;;;;;;;14.58;9.40;;;;;;;23.31;66.25;100976.35;1676211;81;21240;-56
2023/08/19 21:54:28;;;;;;;13.13;9.55;;;;;;;23.25;66.50;100982.89;1683576;79;21292;-56
2023/08/19 21:57:34;;;;;;;18.80;9.50;;;;;;;23.23;66.59;100973.36;1679514;80;21258;-57
2023/08/19 22:00:40;;;;;;;15.32;9.68;;;;;;;23.22;66.72;100986.17;1678550;81;21974;-57
2023/08/19 22:08:45;;;;;;;14.53;9.40;;;;;;;23.11;66.92;100978.65;1735174;79;21767;-57
2023/08/19 22:16:52;;;;;;;14.20;9.65;;;;;;;23.03;67.23;100974.82;1730996;79;21405;-55
2023/08/19 22:22:27;;;;;;;13.43;9.80;;;;;;;22.99;67.44;100974.45;1725169;79;21239;-56